createdAt,value
2019-05-06T00:09:47.000Z,18.12
2019-05-06T00:30:04.000Z,18.06
2019-05-06T00:50:21.000Z,18
2019-05-06T01:10:38.000Z,18
2019-05-06T01:30:55.000Z,17.93
2019-05-06T01:51:11.000Z,17.93
2019-05-06T02:11:29.000Z,17.87
2019-05-06T02:31:46.000Z,17.87
2019-05-06T02:52:03.000Z,17.81
2019-05-06T03:12:20.000Z,17.81
2019-05-06T03:32:36.000Z,17.75
2019-05-06T03:52:53.000Z,17.75
2019-05-06T04:13:10.000Z,17.68
2019-05-06T04:33:27.000Z,17.68
2019-05-06T04:53:44.000Z,17.68
2019-05-06T05:14:01.000Z,17.68
2019-05-06T05:34:18.000Z,17.68
2019-05-06T05:54:35.000Z,17.68
2019-05-06T06:14:52.000Z,17.68
2019-05-06T06:35:09.000Z,17.87
2019-05-06T06:55:25.000Z,18.31
2019-05-06T07:15:42.000Z,18.75
2019-05-06T07:35:59.000Z,19.25
2019-05-06T07:56:16.000Z,19.62
2019-05-06T08:16:33.000Z,20
2019-05-06T08:36:50.000Z,20.25
2019-05-06T08:57:07.000Z,20.37
2019-05-06T09:17:24.000Z,20.43
2019-05-06T09:37:41.000Z,20.5
2019-05-06T09:57:58.000Z,20.5
2019-05-06T10:18:15.000Z,20.5
2019-05-06T10:38:31.000Z,20.5
2019-05-06T10:58:48.000Z,20.43
2019-05-06T11:19:05.000Z,20.37
2019-05-06T11:39:22.000Z,20.31
2019-05-06T11:59:39.000Z,20.25
2019-05-06T12:19:56.000Z,20.25
2019-05-06T12:40:13.000Z,20.31
2019-05-06T13:00:30.000Z,20.37
2019-05-06T13:20:47.000Z,20.43
2019-05-06T13:41:04.000Z,20.5
2019-05-06T14:01:20.000Z,20.5
2019-05-06T14:21:37.000Z,20.5
2019-05-06T14:41:54.000Z,20.56
2019-05-06T15:02:11.000Z,20.56
2019-05-06T15:22:28.000Z,20.56
2019-05-06T15:42:45.000Z,20.56
